Colby, WI

7:44 AM CDT on July 26, 2017 (GMT -0500)
Holton Township | | Change Station

Elev 1435 ft 45.01 °N, 90.29 °W | Updated 29 seconds ago

Rain
Rain
67.5 °F
Feels Like 67.5 °F
N
6.7
Wind Variable Wind from SW
Gusts 8.1 mph

Today
High -- | Low -- °F
--% Chance of Precip.
Yesterday
High -- | Low -- °F
Precip. -- in
Pressure 30.03 in
Visibility 4.0 miles
Clouds Mostly Cloudy 600 ft
Mostly Cloudy 1900 ft
Overcast 6000 ft
Dew Point Not available.
Humidity Not available.
Rainfall 0.33 in
Snow Depth Not available.
5:40 AM 8:34 PM
Waxing Crescent, 13% visible
METAR KMDZ 261235Z AUTO 22011G15KT 4SM VCTSRA BKN006 BKN019 OVC060 20/19 A3003 RMK AO2 LTG DSNT SE THRU SW P0007 T01970192
Pressure 30.03 in
Visibility 4.0 miles
Clouds Mostly Cloudy 600 ft
Mostly Cloudy 1900 ft
Overcast 6000 ft
Dew Point Not available.
Humidity Not available.
Rainfall 0.33 in
Snow Depth Not available.
5:40 AM 8:34 PM
Waxing Crescent, 13% visible
METAR KMDZ 261235Z AUTO 22011G15KT 4SM VCTSRA BKN006 BKN019 OVC060 20/19 A3003 RMK AO2 LTG DSNT SE THRU SW P0007 T01970192

Get Severe Weather Alerts

Thanks for signing up!

Be on the lookout for a verification email in your inbox.

You'll start receiving the daily forecast at 6 AM.

×

10-Day Weather Forecast

Almanac

Astronomy

Jul. 26, 2017 Rise Set
Actual Time
Civil Twilight
Nautical Twilight
Astronomical Twilight
Moon
Length of Visible Light
Length of Day
Tomorrow will be .
, % of the Moon is Illuminated

Today's Extremes

State Highs State Lows

Community

WunderPhotos

Category 6

Welcome to Category 6. This is the collective home for Weather Underground's featured writeups by Dr. Jeff Masters (right), Bob Henson (left), Chris Burt, and other regular contributors.

Nearby

Air Quality

  Air Quality AQ Index Pollutant
Not available.

Snow Depth

Station Depth Elevation

Earthquake Activity

City Distance Mag. Time & Date
Minimum magnitude displayed is 2.5.

Coastal Water Temperatures

Place Temperature

Stations

Nearby Weather Stations

Station Location Temp. Windchill Dew Point Humidity Wind Precip. Elev Updated Type
                   

Watches & Warnings

There are currently no watches in effect.